createdAt,value
2022-08-28T00:01:14.980Z,16.55
2022-08-28T00:03:43.089Z,18.77
2022-08-28T00:06:12.659Z,17.23
2022-08-28T00:08:41.686Z,17.02
2022-08-28T00:11:09.213Z,16.85
2022-08-28T00:13:37.501Z,17.45
2022-08-28T00:16:05.487Z,16.92
2022-08-28T00:18:33.537Z,17.85
2022-08-28T00:21:01.385Z,17.85
2022-08-28T00:23:36.930Z,16.80
2022-08-28T00:26:32.365Z,18.63
2022-08-28T00:28:58.975Z,18.00
2022-08-28T00:31:26.610Z,18.88
2022-08-28T00:33:54.177Z,20.77
2022-08-28T00:36:21.719Z,17.15
2022-08-28T00:38:49.253Z,17.67
2022-08-28T00:41:18.519Z,17.15
2022-08-28T00:44:05.690Z,16.98
2022-08-28T00:46:33.261Z,17.98
2022-08-28T00:49:00.827Z,16.70
2022-08-28T00:51:46.270Z,18.23
2022-08-28T00:54:13.859Z,18.02
2022-08-28T00:56:44.744Z,17.83
2022-08-28T00:59:15.398Z,17.40
2022-08-28T01:01:43.391Z,18.90
2022-08-28T01:04:16.804Z,16.58
2022-08-28T01:06:44.771Z,18.45
2022-08-28T01:09:13.226Z,17.92
2022-08-28T01:11:42.751Z,18.58
2022-08-28T01:14:10.795Z,17.40
2022-08-28T01:16:38.581Z,18.77
2022-08-28T01:19:08.042Z,17.13
2022-08-28T01:21:38.742Z,18.23
2022-08-28T01:24:08.691Z,17.02
2022-08-28T01:26:37.435Z,17.25
2022-08-28T01:29:05.228Z,17.70
2022-08-28T01:31:32.868Z,18.05
2022-08-28T01:34:01.023Z,18.45
2022-08-28T01:36:29.123Z,16.88
2022-08-28T01:38:57.726Z,17.30
2022-08-28T01:41:26.665Z,16.10
2022-08-28T01:43:54.842Z,17.60
2022-08-28T01:46:22.597Z,17.35
2022-08-28T01:48:50.312Z,16.50
2022-08-28T01:51:20.490Z,22.63
2022-08-28T01:53:51.480Z,17.52
2022-08-28T01:56:19.386Z,19.05
2022-08-28T01:58:49.075Z,17.55
2022-08-28T02:01:17.624Z,16.50
2022-08-28T02:03:45.280Z,18.77
2022-08-28T02:06:13.107Z,18.27
2022-08-28T02:08:40.643Z,20.08
2022-08-28T02:11:08.841Z,21.33
2022-08-28T02:13:36.937Z,18.00
2022-08-28T02:16:08.815Z,16.27
2022-08-28T02:18:37.741Z,18.20
2022-08-28T02:21:05.551Z,17.58
2022-08-28T02:23:33.155Z,17.58
2022-08-28T02:26:00.766Z,18.80
2022-08-28T02:28:29.283Z,17.50
2022-08-28T02:30:56.884Z,17.77
2022-08-28T02:33:25.823Z,17.13
2022-08-28T02:35:53.904Z,17.20
2022-08-28T02:38:22.558Z,17.35
2022-08-28T02:40:50.103Z,17.67
2022-08-28T02:43:17.840Z,16.98
2022-08-28T02:45:45.480Z,17.67
2022-08-28T02:48:17.165Z,18.08
2022-08-28T02:50:47.143Z,17.48
2022-08-28T02:53:14.819Z,16.08
2022-08-28T02:55:42.465Z,19.67
2022-08-28T02:58:10.524Z,15.73
2022-08-28T03:00:38.111Z,16.25
2022-08-28T03:03:05.700Z,17.63
2022-08-28T03:05:33.248Z,17.33
2022-08-28T03:08:02.169Z,17.55
2022-08-28T03:10:29.716Z,19.60
2022-08-28T03:12:57.230Z,17.38
2022-08-28T03:15:24.799Z,16.25
2022-08-28T03:17:52.313Z,16.35
2022-08-28T03:20:20.048Z,16.25
2022-08-28T03:23:05.082Z,16.98
2022-08-28T03:25:34.215Z,17.00
2022-08-28T03:28:01.740Z,16.83
2022-08-28T03:30:29.269Z,16.23
2022-08-28T03:32:56.784Z,15.80
2022-08-28T03:35:24.372Z,16.27
2022-08-28T03:37:51.923Z,19.50
2022-08-28T03:40:20.338Z,16.88
2022-08-28T03:42:53.359Z,16.52
2022-08-28T03:45:21.707Z,20.55
2022-08-28T03:47:49.252Z,15.80
2022-08-28T03:50:18.543Z,17.55
2022-08-28T03:52:47.510Z,18.85
2022-08-28T03:55:15.011Z,15.50
2022-08-28T03:57:42.634Z,17.52
2022-08-28T04:00:13.168Z,16.92
2022-08-28T04:02:40.890Z,16.00
2022-08-28T04:05:09.455Z,16.25
2022-08-28T04:07:37.010Z,17.38
2022-08-28T04:10:05.086Z,18.70
2022-08-28T04:12:34.490Z,15.82
2022-08-28T04:15:04.155Z,16.33
2022-08-28T04:17:33.044Z,15.90
2022-08-28T04:20:00.541Z,17.40
2022-08-28T04:22:28.059Z,17.73
2022-08-28T04:24:55.584Z,17.48
2022-08-28T04:27:23.120Z,17.83
2022-08-28T04:29:50.651Z,16.00
2022-08-28T04:32:18.232Z,16.52
2022-08-28T04:34:47.220Z,17.15
2022-08-28T04:37:14.784Z,16.52
2022-08-28T04:39:42.324Z,15.32
2022-08-28T04:42:09.872Z,16.58
2022-08-28T04:44:37.499Z,16.83
2022-08-28T04:47:05.063Z,18.85
2022-08-28T04:49:33.847Z,16.35
2022-08-28T04:52:03.036Z,17.00
2022-08-28T04:54:31.717Z,19.02
2022-08-28T04:56:59.344Z,15.68
2022-08-28T04:59:26.931Z,16.65
2022-08-28T05:01:54.781Z,16.15
2022-08-28T05:04:22.555Z,16.80
2022-08-28T05:06:50.068Z,15.55
2022-08-28T05:09:19.795Z,15.52
2022-08-28T05:11:47.737Z,15.05
2022-08-28T05:14:20.101Z,16.50
2022-08-28T05:16:49.033Z,16.45
2022-08-28T05:19:17.076Z,19.20
2022-08-28T05:21:44.658Z,15.95
2022-08-28T05:24:12.617Z,16.35
2022-08-28T05:26:42.008Z,17.63
2022-08-28T05:29:09.980Z,14.70
2022-08-28T05:31:39.072Z,17.25
2022-08-28T05:34:07.115Z,15.40
2022-08-28T05:36:35.682Z,13.80
2022-08-28T05:39:05.579Z,15.35
2022-08-28T05:41:33.488Z,14.40
2022-08-28T05:44:03.440Z,17.55
2022-08-28T05:46:31.069Z,16.05
2022-08-28T05:48:59.664Z,15.18
2022-08-28T05:51:27.778Z,14.82
2022-08-28T05:53:57.544Z,13.40
2022-08-28T05:56:25.804Z,15.93
2022-08-28T05:58:53.286Z,14.85
2022-08-28T06:01:23.148Z,18.60
2022-08-28T06:03:53.958Z,14.75
2022-08-28T06:06:21.842Z,12.95
2022-08-28T06:08:58.165Z,15.52
2022-08-28T06:11:27.091Z,14.50
2022-08-28T06:13:58.932Z,13.40
2022-08-28T06:16:27.867Z,16.38
2022-08-28T06:18:56.318Z,13.98
2022-08-28T06:21:24.345Z,13.95
2022-08-28T06:23:51.896Z,12.85
2022-08-28T06:26:19.767Z,13.25
2022-08-28T06:28:47.278Z,12.80
2022-08-28T06:31:25.078Z,13.45
2022-08-28T06:33:55.977Z,13.57
2022-08-28T06:36:23.692Z,12.45
2022-08-28T06:38:51.281Z,13.98
2022-08-28T06:41:19.594Z,13.00
2022-08-28T06:43:47.111Z,13.90
2022-08-28T06:46:14.759Z,11.98
2022-08-28T06:48:42.309Z,13.07
2022-08-28T06:51:12.459Z,12.07
2022-08-28T06:53:40.863Z,12.93
2022-08-28T06:56:09.688Z,12.52
2022-08-28T06:58:38.187Z,14.48
2022-08-28T07:01:07.530Z,14.40
2022-08-28T07:03:35.376Z,14.45
2022-08-28T07:06:04.251Z,12.38
2022-08-28T07:08:34.739Z,12.48
2022-08-28T07:11:10.392Z,12.23
2022-08-28T07:13:37.947Z,11.73
2022-08-28T07:16:05.734Z,10.40
2022-08-28T07:18:33.295Z,13.38
2022-08-28T07:21:01.470Z,11.82
2022-08-28T07:23:29.315Z,10.35
2022-08-28T07:25:58.184Z,11.00
2022-08-28T07:28:25.832Z,10.32
2022-08-28T07:31:00.201Z,9.27
2022-08-28T07:33:29.032Z,9.93
2022-08-28T07:35:56.697Z,11.50
2022-08-28T07:38:25.252Z,11.40
2022-08-28T07:40:52.889Z,10.20
2022-08-28T07:43:39.802Z,9.77
2022-08-28T07:46:08.536Z,11.30
2022-08-28T07:48:36.253Z,9.93
2022-08-28T07:51:03.787Z,12.07
2022-08-28T07:53:36.257Z,12.02
2022-08-28T07:56:04.385Z,10.48
2022-08-28T07:58:33.248Z,9.55
2022-08-28T08:01:01.354Z,7.90
2022-08-28T08:03:30.295Z,10.15
2022-08-28T08:05:58.474Z,11.13
2022-08-28T08:08:26.311Z,8.32
2022-08-28T08:10:57.913Z,8.57
2022-08-28T08:13:26.786Z,8.45
2022-08-28T08:15:55.685Z,10.07
2022-08-28T08:18:23.335Z,8.65
2022-08-28T08:20:51.814Z,9.23
2022-08-28T08:23:19.318Z,10.68
2022-08-28T08:25:54.699Z,8.80
2022-08-28T08:28:22.232Z,7.10
2022-08-28T08:30:49.952Z,6.55
2022-08-28T08:33:19.046Z,7.03
2022-08-28T08:35:46.657Z,7.13
2022-08-28T08:38:14.301Z,7.97
2022-08-28T08:40:42.063Z,6.15
2022-08-28T08:43:10.158Z,6.18
2022-08-28T08:45:39.348Z,5.15
2022-08-28T08:48:11.396Z,5.60
2022-08-28T08:50:42.276Z,4.82
2022-08-28T08:53:16.883Z,7.45
2022-08-28T08:55:45.148Z,4.53
2022-08-28T08:58:14.321Z,7.10
2022-08-28T09:00:47.732Z,4.78
2022-08-28T09:03:16.722Z,4.55
2022-08-28T09:05:48.351Z,5.75
2022-08-28T09:08:26.921Z,5.30
2022-08-28T09:11:01.210Z,5.25
2022-08-28T09:13:33.177Z,4.07
2022-08-28T09:16:01.544Z,5.28
2022-08-28T09:18:32.539Z,5.05
2022-08-28T09:21:01.573Z,4.38
2022-08-28T09:23:30.123Z,4.20
2022-08-28T09:25:59.766Z,5.80
2022-08-28T09:28:30.883Z,5.47
2022-08-28T09:31:03.306Z,4.22
2022-08-28T09:33:41.692Z,7.30
2022-08-28T09:36:33.574Z,5.85
2022-08-28T09:39:12.847Z,5.30
2022-08-28T09:42:07.288Z,6.53
2022-08-28T09:44:34.856Z,4.65
2022-08-28T09:47:02.768Z,7.60
2022-08-28T09:49:31.232Z,8.95
2022-08-28T09:52:20.691Z,7.00
2022-08-28T09:54:50.955Z,4.60
2022-08-28T09:57:18.558Z,7.18
2022-08-28T09:59:46.096Z,6.55
2022-08-28T10:02:20.067Z,6.45
2022-08-28T10:04:52.835Z,4.05
2022-08-28T10:07:25.213Z,4.32
2022-08-28T10:09:57.689Z,7.28
2022-08-28T10:12:32.209Z,5.13
2022-08-28T10:15:03.199Z,3.42
2022-08-28T10:17:35.029Z,3.80
2022-08-28T10:20:04.735Z,4.80
2022-08-28T10:22:36.630Z,3.08
2022-08-28T10:25:10.263Z,3.78
2022-08-28T10:27:46.919Z,3.15
2022-08-28T10:30:16.340Z,4.50
2022-08-28T10:32:49.965Z,4.38
2022-08-28T10:35:20.307Z,3.75
2022-08-28T10:37:54.876Z,3.38
2022-08-28T10:40:25.535Z,5.65
2022-08-28T10:42:57.030Z,4.03
2022-08-28T10:45:25.315Z,3.85
2022-08-28T10:47:56.627Z,4.82
2022-08-28T10:50:25.726Z,6.10
2022-08-28T10:52:57.478Z,4.35
2022-08-28T10:55:29.343Z,5.53
2022-08-28T10:57:59.068Z,3.38
2022-08-28T11:00:27.856Z,4.38
2022-08-28T11:02:57.094Z,3.60
2022-08-28T11:05:27.153Z,4.43
2022-08-28T11:07:58.015Z,3.80
2022-08-28T11:10:40.471Z,4.38
2022-08-28T11:13:09.539Z,5.18
2022-08-28T11:15:52.499Z,3.95
2022-08-28T11:18:38.573Z,4.00
2022-08-28T11:21:08.967Z,6.32
2022-08-28T11:23:39.641Z,4.82
2022-08-28T11:26:09.742Z,3.92
2022-08-28T11:28:44.347Z,6.47
2022-08-28T11:31:32.229Z,7.43
2022-08-28T11:34:00.960Z,3.90
2022-08-28T11:36:47.352Z,4.57
2022-08-28T11:39:22.992Z,3.80
2022-08-28T11:42:08.959Z,6.35
2022-08-28T11:44:41.316Z,3.53
2022-08-28T11:47:23.700Z,5.35
2022-08-28T11:49:51.228Z,4.60
2022-08-28T11:52:43.658Z,4.53
2022-08-28T11:55:21.874Z,4.50
2022-08-28T12:00:29.929Z,3.72
2022-08-28T12:03:09.107Z,4.60
2022-08-28T12:05:41.061Z,4.07
2022-08-28T12:08:12.657Z,3.55
2022-08-28T12:10:56.387Z,4.97
2022-08-28T12:13:42.786Z,3.65
2022-08-28T12:16:10.420Z,3.28
2022-08-28T12:18:56.239Z,3.70
2022-08-28T12:21:25.928Z,5.65
2022-08-28T12:23:59.255Z,6.40
2022-08-28T12:26:29.982Z,4.50
2022-08-28T12:28:58.746Z,4.72
2022-08-28T12:32:14.898Z,5.35
2022-08-28T12:34:44.458Z,3.67
2022-08-28T12:37:24.897Z,4.40
2022-08-28T12:39:53.012Z,6.57
2022-08-28T12:42:25.189Z,3.80
2022-08-28T12:44:52.782Z,4.93
2022-08-28T12:47:23.657Z,4.88
2022-08-28T12:49:51.266Z,5.70
2022-08-28T12:52:20.235Z,4.43
2022-08-28T12:54:48.717Z,4.18
2022-08-28T12:57:17.529Z,5.97
2022-08-28T12:59:47.487Z,5.10
2022-08-28T13:02:21.738Z,4.80
2022-08-28T13:04:53.466Z,5.30
2022-08-28T13:07:26.837Z,4.32
2022-08-28T13:09:55.779Z,5.00
2022-08-28T13:12:54.266Z,5.50
2022-08-28T13:15:37.185Z,4.13
2022-08-28T13:18:08.332Z,4.22
2022-08-28T13:20:37.061Z,4.47
2022-08-28T13:23:05.125Z,3.90
2022-08-28T13:25:33.940Z,3.80
2022-08-28T13:28:03.004Z,3.50
2022-08-28T13:30:31.161Z,4.32
2022-08-28T13:32:59.544Z,3.78
2022-08-28T13:35:34.669Z,3.75
2022-08-28T13:38:03.590Z,3.95
2022-08-28T13:43:20.700Z,3.22
2022-08-28T13:45:49.233Z,3.55
2022-08-28T13:48:18.076Z,3.40
2022-08-28T13:50:48.661Z,4.63
2022-08-28T13:53:17.203Z,4.13
2022-08-28T13:55:44.979Z,3.67
2022-08-28T13:58:13.801Z,4.15
2022-08-28T14:00:44.406Z,3.65
2022-08-28T14:03:28.926Z,5.53
2022-08-28T14:05:57.793Z,3.42
2022-08-28T14:08:25.412Z,3.30
2022-08-28T14:10:53.017Z,3.38
2022-08-28T14:13:23.076Z,3.90
2022-08-28T14:15:50.689Z,4.07
2022-08-28T14:18:18.615Z,3.47
2022-08-28T14:20:46.167Z,2.80
2022-08-28T14:23:15.175Z,3.33
2022-08-28T14:25:43.453Z,4.00
2022-08-28T14:28:11.034Z,4.35
2022-08-28T14:30:42.184Z,3.10
2022-08-28T14:33:09.982Z,5.13
2022-08-28T14:35:39.391Z,3.63
2022-08-28T14:38:07.000Z,3.00
2022-08-28T14:40:38.196Z,3.63
2022-08-28T14:43:07.217Z,3.97
2022-08-28T14:45:35.174Z,3.17
2022-08-28T14:48:02.827Z,4.72
2022-08-28T14:50:30.319Z,6.13
2022-08-28T14:52:57.968Z,3.70
2022-08-28T14:55:26.350Z,5.47
2022-08-28T14:57:55.212Z,3.30
2022-08-28T15:00:22.920Z,5.07
2022-08-28T15:02:50.435Z,3.30
2022-08-28T15:05:25.164Z,3.10
2022-08-28T15:07:52.704Z,3.13
2022-08-28T15:10:20.435Z,4.00
2022-08-28T15:12:48.210Z,3.38
2022-08-28T15:15:17.603Z,3.80
2022-08-28T15:17:45.173Z,4.05
2022-08-28T15:20:12.897Z,5.47
2022-08-28T15:22:40.521Z,4.95
2022-08-28T15:25:08.390Z,3.38
2022-08-28T15:27:36.128Z,3.97
2022-08-28T15:30:03.651Z,5.28
2022-08-28T15:32:32.538Z,4.47
2022-08-28T15:35:00.088Z,3.78
2022-08-28T15:37:29.357Z,4.25
2022-08-28T15:40:31.351Z,5.65
2022-08-28T15:42:59.345Z,5.95
2022-08-28T15:45:27.409Z,5.25
2022-08-28T15:47:56.810Z,5.25
2022-08-28T15:50:24.470Z,6.53
2022-08-28T15:52:53.412Z,4.82
2022-08-28T15:55:21.068Z,3.83
2022-08-28T15:57:49.632Z,5.40
2022-08-28T16:00:17.512Z,4.32
2022-08-28T16:02:45.344Z,3.67
2022-08-28T16:05:14.335Z,3.28
2022-08-28T16:07:41.934Z,4.43
2022-08-28T16:10:10.240Z,3.40
2022-08-28T16:12:39.505Z,3.30
2022-08-28T16:15:07.817Z,2.78
2022-08-28T16:17:35.350Z,3.45
2022-08-28T16:20:04.987Z,8.85
2022-08-28T16:22:34.104Z,6.80
2022-08-28T16:25:01.626Z,15.98
2022-08-28T16:27:29.162Z,5.10
2022-08-28T16:29:57.346Z,5.32
2022-08-28T16:32:25.226Z,4.45
2022-08-28T16:34:52.902Z,4.90
2022-08-28T16:37:21.428Z,4.55
2022-08-28T16:39:56.025Z,3.33
2022-08-28T16:42:23.843Z,7.18
2022-08-28T16:44:51.409Z,4.63
2022-08-28T16:47:18.971Z,3.95
2022-08-28T16:49:46.663Z,8.10
2022-08-28T16:52:14.201Z,4.82
2022-08-28T16:54:48.419Z,3.80
2022-08-28T16:57:17.906Z,11.55
2022-08-28T16:59:45.478Z,3.85
2022-08-28T17:02:14.815Z,3.03
2022-08-28T17:04:43.045Z,3.00
2022-08-28T17:07:10.679Z,2.72
2022-08-28T17:09:38.308Z,3.15
2022-08-28T17:12:06.153Z,6.68
2022-08-28T17:14:35.114Z,3.50
2022-08-28T17:17:02.702Z,3.20
2022-08-28T17:19:30.376Z,5.10
2022-08-28T17:22:15.670Z,7.00
2022-08-28T17:24:43.320Z,4.32
2022-08-28T17:27:11.989Z,3.08
2022-08-28T17:29:40.923Z,3.45
2022-08-28T17:32:08.645Z,4.15
2022-08-28T17:34:36.918Z,3.08
2022-08-28T17:37:05.128Z,3.65
2022-08-28T17:39:32.936Z,3.80
2022-08-28T17:42:01.032Z,3.92
2022-08-28T17:44:28.845Z,5.05
2022-08-28T17:46:58.046Z,3.95
2022-08-28T17:49:26.987Z,4.70
2022-08-28T17:51:54.672Z,5.72
2022-08-28T17:54:24.228Z,3.30
2022-08-28T17:56:51.923Z,3.50
2022-08-28T17:59:20.553Z,4.15
2022-08-28T18:01:48.634Z,3.78
2022-08-28T18:04:23.914Z,4.00
2022-08-28T18:06:54.309Z,6.68
2022-08-28T18:09:22.993Z,6.38
2022-08-28T18:11:50.699Z,5.70
2022-08-28T18:14:18.480Z,5.25
2022-08-28T18:16:46.149Z,5.13
2022-08-28T18:19:14.020Z,4.35
2022-08-28T18:21:43.473Z,4.22
2022-08-28T18:24:13.112Z,4.63
2022-08-28T18:26:41.280Z,4.15
2022-08-28T18:29:09.268Z,4.72
2022-08-28T18:31:37.067Z,4.32
2022-08-28T18:34:04.834Z,4.95
2022-08-28T18:36:32.765Z,4.13
2022-08-28T18:39:02.108Z,4.95
2022-08-28T18:41:41.534Z,4.53
2022-08-28T18:44:12.127Z,5.07
2022-08-28T18:46:40.189Z,6.35
2022-08-28T18:49:08.063Z,4.95
2022-08-28T18:51:35.816Z,5.35
2022-08-28T18:54:05.036Z,5.80
2022-08-28T18:56:33.993Z,12.20
2022-08-28T18:59:03.791Z,5.70
2022-08-28T19:01:31.449Z,7.38
2022-08-28T19:03:59.225Z,7.00
2022-08-28T19:06:26.874Z,9.25
2022-08-28T19:08:54.452Z,7.47
2022-08-28T19:11:23.653Z,6.75
2022-08-28T19:13:51.339Z,6.72
2022-08-28T19:16:19.534Z,5.28
2022-08-28T19:18:47.952Z,8.50
2022-08-28T19:21:19.675Z,6.95
2022-08-28T19:23:55.635Z,6.03
2022-08-28T19:26:25.906Z,8.15
2022-08-28T19:28:53.635Z,7.50
2022-08-28T19:31:21.316Z,7.57
2022-08-28T19:33:49.388Z,7.40
2022-08-28T19:36:18.389Z,8.52
2022-08-28T19:38:46.157Z,9.23
2022-08-28T19:41:14.284Z,7.57
2022-08-28T19:43:44.672Z,9.95
2022-08-28T19:46:18.274Z,6.15
2022-08-28T19:48:47.720Z,6.78
2022-08-28T19:51:17.243Z,7.95
2022-08-28T19:53:54.812Z,7.45
2022-08-28T19:56:27.359Z,6.57
2022-08-28T19:58:58.569Z,7.88
2022-08-28T20:01:26.461Z,9.25
2022-08-28T20:03:54.041Z,11.82
2022-08-28T20:06:21.670Z,9.93
2022-08-28T20:08:49.327Z,10.13
2022-08-28T20:11:17.590Z,11.93
2022-08-28T20:13:45.168Z,8.55
2022-08-28T20:16:14.193Z,10.35
2022-08-28T20:18:42.231Z,8.93
2022-08-28T20:21:12.046Z,8.38
2022-08-28T20:23:39.735Z,7.78
2022-08-28T20:26:09.414Z,9.55
2022-08-28T20:28:37.121Z,14.98
2022-08-28T20:31:08.368Z,9.30
2022-08-28T20:33:37.425Z,7.07
2022-08-28T20:36:07.145Z,7.38
2022-08-28T20:38:40.200Z,10.65
2022-08-28T20:41:08.510Z,10.57
2022-08-28T20:43:36.694Z,9.65
2022-08-28T20:46:05.003Z,8.90
2022-08-28T20:48:33.366Z,9.27
2022-08-28T20:51:02.335Z,10.73
2022-08-28T20:53:37.878Z,11.07
2022-08-28T20:56:07.425Z,12.00
2022-08-28T20:58:35.662Z,9.93
2022-08-28T21:01:03.406Z,9.45
2022-08-28T21:03:31.058Z,12.98
2022-08-28T21:05:58.536Z,9.30
2022-08-28T21:08:27.479Z,12.05
2022-08-28T21:10:55.090Z,9.15
2022-08-28T21:13:23.334Z,9.00
2022-08-28T21:15:50.852Z,8.25
2022-08-28T21:18:18.419Z,8.63
2022-08-28T21:20:46.700Z,10.50
2022-08-28T21:23:14.592Z,9.77
2022-08-28T21:25:43.536Z,9.40
2022-08-28T21:28:11.122Z,12.32
2022-08-28T21:30:41.699Z,10.23
2022-08-28T21:33:09.342Z,8.73
2022-08-28T21:35:36.858Z,9.50
2022-08-28T21:38:04.373Z,10.68
2022-08-28T21:40:32.160Z,9.60
2022-08-28T21:43:01.128Z,10.75
2022-08-28T21:45:28.652Z,9.32
2022-08-28T21:47:56.299Z,8.30
2022-08-28T21:50:23.787Z,9.55
2022-08-28T21:52:51.511Z,8.70
2022-08-28T21:55:19.059Z,8.32
2022-08-28T21:57:46.620Z,9.80
2022-08-28T22:00:18.332Z,7.78
2022-08-28T22:02:46.329Z,7.32
2022-08-28T22:05:14.322Z,8.38
2022-08-28T22:07:41.879Z,8.05
2022-08-28T22:10:09.662Z,8.00
2022-08-28T22:12:37.206Z,7.97
2022-08-28T22:15:06.060Z,9.43
2022-08-28T22:17:34.880Z,8.73
2022-08-28T22:20:02.541Z,8.05
2022-08-28T22:22:47.715Z,8.25
2022-08-28T22:25:15.491Z,8.38
2022-08-28T22:27:42.996Z,7.25
2022-08-28T22:30:10.975Z,10.25
2022-08-28T22:32:39.913Z,8.40
2022-08-28T22:35:08.797Z,8.07
2022-08-28T22:37:36.318Z,7.45
2022-08-28T22:40:04.069Z,8.07
2022-08-28T22:42:40.657Z,7.68
2022-08-28T22:45:09.124Z,11.50
2022-08-28T22:47:37.278Z,8.77
2022-08-28T22:50:07.037Z,13.27
2022-08-28T22:52:34.567Z,8.52
2022-08-28T22:55:02.384Z,7.93
2022-08-28T22:57:29.952Z,11.20
2022-08-28T23:00:01.346Z,9.18
2022-08-28T23:02:28.898Z,9.35
2022-08-28T23:04:56.523Z,9.10
2022-08-28T23:07:25.505Z,8.93
2022-08-28T23:09:53.137Z,9.75
2022-08-28T23:12:20.669Z,9.27
2022-08-28T23:14:48.892Z,8.60
2022-08-28T23:17:16.902Z,11.98
2022-08-28T23:19:46.428Z,9.23
2022-08-28T23:22:14.061Z,11.63
2022-08-28T23:24:42.946Z,9.18
2022-08-28T23:27:34.602Z,9.30
2022-08-28T23:29:57.937Z,8.45
2022-08-28T23:32:25.510Z,10.43
2022-08-28T23:34:52.969Z,8.85
2022-08-28T23:37:20.485Z,10.73
2022-08-28T23:39:51.542Z,10.55
2022-08-28T23:42:22.072Z,12.68
2022-08-28T23:44:49.651Z,10.27
2022-08-28T23:47:17.128Z,11.23
2022-08-28T23:49:45.777Z,13.18
2022-08-28T23:52:13.409Z,8.77
2022-08-28T23:54:41.122Z,10.00
2022-08-28T23:57:10.988Z,9.65
2022-08-28T23:59:38.752Z,8.27
